Airfield :
LOGIN :

Register | Disclaimer

   EN    FR    IT 

 










Legend :    VFR   Marginal VFR   IFR   Intensive IFR   Very Intensive IFR
Visi :
Ceiling :
>= 8 km
>= 3000ft
5 to 8 km
1000 to 3000 ft
1500m to 5 km
500 to 1000 ft
800 to 1500m
200 to 500 ft
< 800m
< 200 ft
Symbols :   Thunderstorms  Fog  Heavy snow  Heavy precipitations  Wind > 20 kt
SIGMETs :     Misc.  Thunderstorms  Icing  Turbulence  Mountain Waves  Volcanic Ashes






- Airport Elevation : 489 ft
- IATA code : GDN


EPGD - Gdansk

CURRENT METAR :
  • 280100Z 28012KT 9999 FEW028 SCT040 11/08 Q1025

EXPIRED METARs :
  • 280030Z 28009KT 9999 SCT027 BKN032 12/09 Q1025
  • 280000Z 28007KT 9999 BKN034 12/09 Q1025
  • 272330Z 27007KT 9999 FEW038 12/09 Q1026
  • 272300Z 29007KT CAVOK 12/09 Q1026
  • 272230Z 27006KT 9999 -SHRA FEW039TCU 12/09 Q1026
  • 272200Z 25005KT CAVOK 13/09 Q1026

TAF TAF EPGD
Valid from the 28 at 00:00 until the 29 at 00:00 UTC


272330Z 2800/2824 28005KT 9999 SCT040
TEMPO 2800/2808 -SHRA BKN010 BKN020CB
BECMG 2807/2809 36012KT
PROB40
TEMPO 2809/2817 01016G28KT SCT035CB



MET'MAP, your aeronautical weather chart ! - Copyright ORBIFLY December 2007 - Disclaimer

ORBIFLY MET'MAP TEAM :

Programming & Development : Alexandra Zaïnal
Concept & original design : Baudouin d'Aumeries
Assistance for programming : Marc-Olivier Méhu
Technical & hardware support : Manuel Goepfert

Contact : metmap@orbifly.com




SOURCES & CREDITS :

   NOAA